createdAt,value
2023-05-09T00:00:07.586Z,80814.44
2023-05-09T00:01:48.919Z,80814.88
2023-05-09T00:03:30.266Z,80814.56
2023-05-09T00:05:11.651Z,80816.81
2023-05-09T00:06:53.043Z,80813.75
2023-05-09T00:08:34.343Z,80814.75
2023-05-09T00:10:15.655Z,80806.66
2023-05-09T00:11:56.963Z,80802.97
2023-05-09T00:13:38.288Z,80793.19
2023-05-09T00:15:19.566Z,80795.06
2023-05-09T00:17:00.907Z,80789.56
2023-05-09T00:18:42.305Z,80791.41
2023-05-09T00:20:23.607Z,80794.25
2023-05-09T00:22:04.912Z,80793.50
2023-05-09T00:23:46.170Z,80787.25
2023-05-09T00:25:27.432Z,80791.03
2023-05-09T00:27:08.749Z,80783.06
2023-05-09T00:28:50.009Z,80780.78
2023-05-09T00:30:31.321Z,80775.84
2023-05-09T00:32:12.680Z,80771.72
2023-05-09T00:33:54.109Z,80769.84
2023-05-09T00:35:35.387Z,80761.88
2023-05-09T00:37:16.684Z,80765.25
2023-05-09T00:38:57.985Z,80759.22
2023-05-09T00:40:39.255Z,80756.28
2023-05-09T00:42:20.563Z,80748.91
2023-05-09T00:44:01.925Z,80761.28
2023-05-09T00:45:43.232Z,80753.91
2023-05-09T00:47:24.567Z,80755.63
2023-05-09T00:49:05.953Z,80740.56
2023-05-09T00:50:47.229Z,80739.22
2023-05-09T00:52:28.517Z,80740.25
2023-05-09T00:54:09.795Z,80736.91
2023-05-09T00:55:51.091Z,80725.53
2023-05-09T00:57:32.434Z,80731.84
2023-05-09T00:59:14.023Z,80724.84
2023-05-09T01:00:56.123Z,80722.50
2023-05-09T01:02:37.583Z,80725.94
2023-05-09T01:04:18.905Z,80725.06
2023-05-09T01:06:00.197Z,80724.16
2023-05-09T01:07:41.527Z,80717.47
2023-05-09T01:09:22.799Z,80725.13
2023-05-09T01:11:04.127Z,80722.22
2023-05-09T01:12:45.525Z,80719.53
2023-05-09T01:14:26.962Z,80720.50
2023-05-09T01:16:08.338Z,80707.25
2023-05-09T01:17:49.773Z,80716.09
2023-05-09T01:19:31.207Z,80722.44
2023-05-09T01:21:12.484Z,80724.75
2023-05-09T01:22:53.809Z,80720.72
2023-05-09T01:24:35.113Z,80715.97
2023-05-09T01:26:16.490Z,80711.66
2023-05-09T01:27:57.781Z,80723.56
2023-05-09T01:29:39.084Z,80728.63
2023-05-09T01:31:20.456Z,80725.06
2023-05-09T01:33:01.877Z,80730.06
2023-05-09T01:34:43.228Z,80728.06
2023-05-09T01:36:24.600Z,80730.22
2023-05-09T01:38:05.873Z,80729.94
2023-05-09T01:39:47.228Z,80725.19
2023-05-09T01:41:28.551Z,80729.19
2023-05-09T01:43:09.927Z,80724.53
2023-05-09T01:44:51.243Z,80729.91
2023-05-09T01:46:32.585Z,80719.59
2023-05-09T01:48:13.932Z,80720.34
2023-05-09T01:49:55.217Z,80714.53
2023-05-09T01:51:36.501Z,80716.53
2023-05-09T01:53:17.819Z,80719.53
2023-05-09T01:54:59.116Z,80715.78
2023-05-09T01:56:40.404Z,80708.34
2023-05-09T01:58:21.728Z,80707.72
2023-05-09T02:00:03.051Z,80713.34
2023-05-09T02:01:44.360Z,80704.78
2023-05-09T02:03:25.681Z,80701.31
2023-05-09T02:05:07.024Z,80699.97
2023-05-09T02:06:48.279Z,80709.00
2023-05-09T02:08:29.555Z,80709.97
2023-05-09T02:10:10.837Z,80716.75
2023-05-09T02:11:52.130Z,80701.63
2023-05-09T02:13:33.456Z,80704.06
2023-05-09T02:15:15.083Z,80704.22
2023-05-09T02:16:56.592Z,80704.38
2023-05-09T02:18:37.942Z,80704.41
2023-05-09T02:20:19.226Z,80699.28
2023-05-09T02:22:00.497Z,80700.53
2023-05-09T02:23:41.799Z,80701.31
2023-05-09T02:25:23.165Z,80702.53
2023-05-09T02:27:04.521Z,80698.34
2023-05-09T02:28:45.854Z,80694.41
2023-05-09T02:30:27.148Z,80692.69
2023-05-09T02:32:08.541Z,80684.06
2023-05-09T02:33:49.976Z,80691.97
2023-05-09T02:35:31.256Z,80687.31
2023-05-09T02:37:12.527Z,80690.09
2023-05-09T02:38:53.784Z,80688.91
2023-05-09T02:40:35.077Z,80683.00
2023-05-09T02:42:16.400Z,80683.03
2023-05-09T02:43:57.667Z,80680.91
2023-05-09T02:45:38.974Z,80690.44
2023-05-09T02:47:20.289Z,80680.72
2023-05-09T02:49:01.568Z,80680.50
2023-05-09T02:50:42.944Z,80677.53
2023-05-09T02:52:25.684Z,80672.69
2023-05-09T02:54:07.009Z,80674.19
2023-05-09T02:55:48.316Z,80672.75
2023-05-09T02:57:29.625Z,80677.75
2023-05-09T02:59:10.916Z,80673.63
2023-05-09T03:00:52.256Z,80672.81
2023-05-09T03:02:33.617Z,80666.47
2023-05-09T03:04:14.972Z,80669.28
2023-05-09T03:05:56.297Z,80661.81
2023-05-09T03:07:37.584Z,80667.97
2023-05-09T03:09:18.886Z,80665.06
2023-05-09T03:11:00.156Z,80659.28
2023-05-09T03:12:41.478Z,80661.69
2023-05-09T03:14:22.802Z,80653.38
2023-05-09T03:16:04.106Z,80659.09
2023-05-09T03:17:45.434Z,80660.13
2023-05-09T03:19:26.742Z,80660.00
2023-05-09T03:21:08.025Z,80665.63
2023-05-09T03:22:49.338Z,80664.00
2023-05-09T03:24:30.643Z,80665.47
2023-05-09T03:26:11.925Z,80656.78
2023-05-09T03:27:53.254Z,80662.28
2023-05-09T03:29:34.551Z,80660.53
2023-05-09T03:31:15.869Z,80660.63
2023-05-09T03:32:57.260Z,80665.09
2023-05-09T03:34:38.575Z,80665.72
2023-05-09T03:36:19.876Z,80661.19
2023-05-09T03:38:01.195Z,80663.91
2023-05-09T03:39:42.472Z,80668.09
2023-05-09T03:41:23.789Z,80669.91
2023-05-09T03:43:05.083Z,80664.09
2023-05-09T03:44:46.475Z,80665.72
2023-05-09T03:46:27.780Z,80665.78
2023-05-09T03:48:09.162Z,80661.53
2023-05-09T03:49:50.462Z,80662.63
2023-05-09T03:51:31.773Z,80650.25
2023-05-09T03:53:13.070Z,80657.50
2023-05-09T03:54:54.329Z,80657.19
2023-05-09T03:56:35.636Z,80663.31
2023-05-09T03:58:16.921Z,80665.00
2023-05-09T03:59:58.205Z,80656.84
2023-05-09T04:01:40.319Z,80659.25
2023-05-09T04:03:21.766Z,80656.13
2023-05-09T04:05:03.109Z,80655.16
2023-05-09T04:06:44.435Z,80657.34
2023-05-09T04:08:25.751Z,80656.47
2023-05-09T04:10:07.043Z,80643.16
2023-05-09T04:11:48.392Z,80641.22
2023-05-09T04:13:29.741Z,80635.53
2023-05-09T04:15:11.127Z,80642.84
2023-05-09T04:16:52.487Z,80649.03
2023-05-09T04:18:33.803Z,80654.59
2023-05-09T04:20:15.108Z,80650.84
2023-05-09T04:21:56.443Z,80650.50
2023-05-09T04:23:37.766Z,80656.56
2023-05-09T04:25:19.056Z,80665.03
2023-05-09T04:27:00.353Z,80651.28
2023-05-09T04:28:41.641Z,80644.75
2023-05-09T04:30:22.898Z,80637.00
2023-05-09T04:32:04.227Z,80635.28
2023-05-09T04:33:45.573Z,80643.59
2023-05-09T04:35:26.896Z,80648.38
2023-05-09T04:37:08.315Z,80643.59
2023-05-09T04:38:49.624Z,80646.25
2023-05-09T04:40:30.888Z,80650.59
2023-05-09T04:42:12.195Z,80649.03
2023-05-09T04:43:53.444Z,80647.47
2023-05-09T04:45:34.705Z,80643.19
2023-05-09T04:47:16.010Z,80649.69
2023-05-09T04:48:57.283Z,80644.66
2023-05-09T04:50:38.577Z,80645.94
2023-05-09T04:52:19.888Z,80643.63
2023-05-09T04:54:01.186Z,80644.03
2023-05-09T04:55:42.470Z,80641.09
2023-05-09T04:57:23.758Z,80640.56
2023-05-09T04:59:05.021Z,80646.88
2023-05-09T05:00:46.298Z,80636.47
2023-05-09T05:02:27.692Z,80646.53
2023-05-09T05:04:09.090Z,80640.22
2023-05-09T05:05:50.546Z,80635.28
2023-05-09T05:07:31.918Z,80633.56
2023-05-09T05:09:13.172Z,80639.13
2023-05-09T05:10:54.463Z,80639.25
2023-05-09T05:12:35.814Z,80633.16
2023-05-09T05:14:17.113Z,80640.50
2023-05-09T05:15:58.393Z,80644.88
2023-05-09T05:17:39.778Z,80641.00
2023-05-09T05:19:21.103Z,80646.78
2023-05-09T05:21:02.396Z,80656.50
2023-05-09T05:22:43.738Z,80660.44
2023-05-09T05:24:25.012Z,80658.25
2023-05-09T05:26:06.299Z,80657.47
2023-05-09T05:27:47.594Z,80653.84
2023-05-09T05:29:28.885Z,80656.28
2023-05-09T05:31:10.211Z,80651.53
2023-05-09T05:32:51.673Z,80648.47
2023-05-09T05:34:33.008Z,80654.44
2023-05-09T05:36:14.284Z,80650.88
2023-05-09T05:37:55.577Z,80652.19
2023-05-09T05:39:36.894Z,80644.59
2023-05-09T05:41:18.192Z,80639.63
2023-05-09T05:42:59.496Z,80643.88
2023-05-09T05:44:40.816Z,80645.38
2023-05-09T05:46:22.266Z,80644.66
2023-05-09T05:48:03.688Z,80642.63
2023-05-09T05:49:45.009Z,80640.63
2023-05-09T05:51:26.308Z,80641.94
2023-05-09T05:53:07.618Z,80649.06
2023-05-09T05:54:48.911Z,80635.63
2023-05-09T05:56:30.205Z,80636.72
2023-05-09T05:58:11.504Z,80637.97
2023-05-09T05:59:52.868Z,80642.53
2023-05-09T06:01:34.201Z,80638.69
2023-05-09T06:03:15.615Z,80637.47
2023-05-09T06:04:56.965Z,80636.69
2023-05-09T06:06:38.263Z,80637.78
2023-05-09T06:08:19.553Z,80632.38
2023-05-09T06:10:00.854Z,80632.59
2023-05-09T06:11:42.158Z,80634.88
2023-05-09T06:13:23.534Z,80635.97
2023-05-09T06:15:04.913Z,80632.28
2023-05-09T06:16:46.223Z,80630.00
2023-05-09T06:18:27.519Z,80627.78
2023-05-09T06:20:08.835Z,80624.75
2023-05-09T06:21:50.156Z,80618.91
2023-05-09T06:23:31.489Z,80618.91
2023-05-09T06:25:12.972Z,80613.53
2023-05-09T06:26:54.349Z,80615.75
2023-05-09T06:28:35.637Z,80614.06
2023-05-09T06:30:26.402Z,80608.56
2023-05-09T06:32:08.208Z,80611.25
2023-05-09T06:33:49.515Z,80600.03
2023-05-09T06:35:30.851Z,80596.75
2023-05-09T06:37:12.207Z,80599.00
2023-05-09T06:38:53.516Z,80594.81
2023-05-09T06:40:34.800Z,80600.09
2023-05-09T06:42:16.086Z,80599.00
2023-05-09T06:43:57.402Z,80600.16
2023-05-09T06:45:38.688Z,80592.19
2023-05-09T06:47:19.991Z,80588.06
2023-05-09T06:49:01.294Z,80590.72
2023-05-09T06:50:42.572Z,80590.06
2023-05-09T06:52:23.852Z,80589.94
2023-05-09T06:54:05.149Z,80590.78
2023-05-09T06:55:46.442Z,80582.91
2023-05-09T06:57:27.715Z,80581.31
2023-05-09T06:59:08.990Z,80577.00
2023-05-09T07:00:50.285Z,80567.69
2023-05-09T07:02:31.751Z,80571.78
2023-05-09T07:04:13.108Z,80568.31
2023-05-09T07:05:54.418Z,80570.88
2023-05-09T07:07:35.761Z,80558.97
2023-05-09T07:09:17.086Z,80559.38
2023-05-09T07:10:58.393Z,80560.81
2023-05-09T07:12:39.677Z,80555.66
2023-05-09T07:14:21.001Z,80556.50
2023-05-09T07:16:02.359Z,80558.25
2023-05-09T07:17:43.834Z,80558.13
2023-05-09T07:19:25.249Z,80552.88
2023-05-09T07:21:06.610Z,80552.25
2023-05-09T07:22:47.934Z,80552.31
2023-05-09T07:24:29.299Z,80548.25
2023-05-09T07:26:10.644Z,80537.41
2023-05-09T07:27:51.929Z,80550.13
2023-05-09T07:29:33.228Z,80542.72
2023-05-09T07:31:14.665Z,80540.28
2023-05-09T07:32:56.076Z,80534.94
2023-05-09T07:34:37.428Z,80544.22
2023-05-09T07:36:18.730Z,80547.50
2023-05-09T07:37:59.998Z,80555.97
2023-05-09T07:39:41.344Z,80545.88
2023-05-09T07:41:22.697Z,80541.31
2023-05-09T07:43:03.980Z,80538.69
2023-05-09T07:44:45.272Z,80531.53
2023-05-09T07:46:26.672Z,80530.44
2023-05-09T07:48:08.075Z,80527.13
2023-05-09T07:49:49.417Z,80524.81
2023-05-09T07:51:30.741Z,80517.72
2023-05-09T07:53:12.047Z,80518.69
2023-05-09T07:54:54.600Z,80529.25
2023-05-09T07:56:36.017Z,80516.59
2023-05-09T07:58:17.300Z,80508.13
2023-05-09T07:59:58.626Z,80515.91
2023-05-09T08:01:39.940Z,80513.06
2023-05-09T08:03:21.548Z,80514.06
2023-05-09T08:05:02.918Z,80507.28
2023-05-09T08:06:44.250Z,80500.81
2023-05-09T08:08:25.559Z,80507.63
2023-05-09T08:10:06.894Z,80498.94
2023-05-09T08:11:48.242Z,80505.13
2023-05-09T08:13:29.611Z,80489.56
2023-05-09T08:15:10.936Z,80494.28
2023-05-09T08:16:52.221Z,80485.03
2023-05-09T08:18:33.550Z,80488.25
2023-05-09T08:20:14.916Z,80480.69
2023-05-09T08:21:56.216Z,80483.56
2023-05-09T08:23:37.561Z,80473.78
2023-05-09T08:25:18.850Z,80479.59
2023-05-09T08:27:00.169Z,80480.38
2023-05-09T08:28:41.500Z,80476.41
2023-05-09T08:30:22.918Z,80473.59
2023-05-09T08:32:04.251Z,80477.03
2023-05-09T08:33:45.583Z,80474.66
2023-05-09T08:35:26.884Z,80473.81
2023-05-09T08:37:08.240Z,80477.47
2023-05-09T08:38:49.573Z,80474.53
2023-05-09T08:40:30.935Z,80472.56
2023-05-09T08:42:12.409Z,80467.53
2023-05-09T08:43:53.734Z,80464.84
2023-05-09T08:45:35.097Z,80463.56
2023-05-09T08:47:16.511Z,80465.50
2023-05-09T08:48:57.972Z,80462.69
2023-05-09T08:50:39.250Z,80462.03
2023-05-09T08:52:20.528Z,80458.94
2023-05-09T08:54:01.850Z,80466.25
2023-05-09T08:55:43.177Z,80457.13
2023-05-09T08:57:24.484Z,80464.91
2023-05-09T08:59:05.925Z,80447.47
2023-05-09T09:00:47.247Z,80453.19
2023-05-09T09:02:28.663Z,80449.34
2023-05-09T09:04:10.004Z,80444.75
2023-05-09T09:05:51.422Z,80447.34
2023-05-09T09:07:32.772Z,80451.94
2023-05-09T09:09:14.068Z,80450.75
2023-05-09T09:10:55.408Z,80448.66
2023-05-09T09:12:36.700Z,80444.75
2023-05-09T09:14:18.024Z,80445.38
2023-05-09T09:15:59.380Z,80445.31
2023-05-09T09:17:40.779Z,80444.03
2023-05-09T09:19:22.054Z,80440.78
2023-05-09T09:21:03.429Z,80436.81
2023-05-09T09:22:44.754Z,80436.34
2023-05-09T09:24:26.041Z,80439.66
2023-05-09T09:26:07.335Z,80436.22
2023-05-09T09:27:48.640Z,80437.63
2023-05-09T09:29:29.916Z,80423.63
2023-05-09T09:31:11.237Z,80429.63
2023-05-09T09:32:52.675Z,80430.34
2023-05-09T09:34:33.980Z,80422.03
2023-05-09T09:36:15.278Z,80420.66
2023-05-09T09:37:58.517Z,80416.81
2023-05-09T09:39:41.120Z,80418.16
2023-05-09T09:41:22.443Z,80420.75
2023-05-09T09:43:03.710Z,80409.66
2023-05-09T09:44:44.984Z,80416.91
2023-05-09T09:46:26.335Z,80405.00
2023-05-09T09:48:07.694Z,80404.38
2023-05-09T09:49:49.092Z,80405.72
2023-05-09T09:51:30.410Z,80396.50
2023-05-09T09:53:11.704Z,80412.91
2023-05-09T09:54:53.224Z,80404.34
2023-05-09T09:56:34.522Z,80395.16
2023-05-09T09:58:15.807Z,80397.13
2023-05-09T09:59:57.142Z,80393.84
2023-05-09T10:01:38.466Z,80391.22
2023-05-09T10:03:19.888Z,80394.50
2023-05-09T10:05:01.308Z,80389.25
2023-05-09T10:06:42.631Z,80389.88
2023-05-09T10:08:24.309Z,80389.16
2023-05-09T10:10:05.628Z,80387.84
2023-05-09T10:11:46.957Z,80382.59
2023-05-09T10:13:28.316Z,80374.69
2023-05-09T10:15:09.639Z,80376.00
2023-05-09T10:16:50.977Z,80381.97
2023-05-09T10:18:32.600Z,80377.94
2023-05-09T10:20:14.286Z,80370.75
2023-05-09T10:21:55.810Z,80372.72
2023-05-09T10:23:37.112Z,80374.75
2023-05-09T10:25:18.395Z,80369.53
2023-05-09T10:26:59.854Z,80370.88
2023-05-09T10:28:41.161Z,80366.88
2023-05-09T10:30:22.457Z,80362.34
2023-05-09T10:32:03.770Z,80362.94
2023-05-09T10:33:45.231Z,80362.97
2023-05-09T10:35:26.563Z,80361.66
2023-05-09T10:37:07.935Z,80359.72
2023-05-09T10:38:49.344Z,80362.97
2023-05-09T10:40:30.644Z,80357.75
2023-05-09T10:42:11.911Z,80366.25
2023-05-09T10:43:53.273Z,80364.28
2023-05-09T10:45:35.084Z,80361.00
2023-05-09T10:47:16.639Z,80360.31
2023-05-09T10:48:58.149Z,80358.38
2023-05-09T10:50:39.794Z,80353.78
2023-05-09T10:52:21.066Z,80353.78
2023-05-09T10:54:02.521Z,80354.41
2023-05-09T10:55:44.258Z,80351.78
2023-05-09T10:57:25.622Z,80341.97
2023-05-09T10:59:07.025Z,80341.28
2023-05-09T11:00:48.320Z,80349.19
2023-05-09T11:02:29.673Z,80347.88
2023-05-09T11:04:11.092Z,80334.03
2023-05-09T11:05:53.080Z,80331.41
2023-05-09T11:07:34.648Z,80327.47
2023-05-09T11:09:16.141Z,80332.09
2023-05-09T11:10:59.133Z,80332.09
2023-05-09T11:12:40.760Z,80319.63
2023-05-09T11:14:22.264Z,80310.44
2023-05-09T11:16:03.825Z,80320.94
2023-05-09T11:17:45.307Z,80317.66
2023-05-09T11:19:26.613Z,80301.88
2023-05-09T11:21:08.097Z,80311.69
2023-05-09T11:22:49.785Z,80310.25
2023-05-09T11:24:31.499Z,80307.09
2023-05-09T11:26:12.794Z,80307.13
2023-05-09T11:27:54.109Z,80305.06
2023-05-09T11:29:35.420Z,80310.28
2023-05-09T11:31:16.705Z,80298.44
2023-05-09T11:32:58.150Z,80301.09
2023-05-09T11:34:40.240Z,80311.47
2023-05-09T11:36:21.653Z,80296.44
2023-05-09T11:38:02.952Z,80292.59
2023-05-09T11:39:44.497Z,80289.34
2023-05-09T11:41:26.081Z,80282.75
2023-05-09T11:43:07.550Z,80297.16
2023-05-09T11:44:48.897Z,80293.22
2023-05-09T11:46:30.282Z,80301.75
2023-05-09T11:48:11.683Z,80303.19
2023-05-09T11:49:53.027Z,80313.66
2023-05-09T11:51:34.323Z,80302.53
2023-05-09T11:53:16.218Z,80298.59
2023-05-09T11:54:58.032Z,80293.28
2023-05-09T11:56:39.729Z,80306.97
2023-05-09T11:58:21.147Z,80309.09
2023-05-09T12:00:02.619Z,80291.94
2023-05-09T12:01:44.092Z,80289.78
2023-05-09T12:03:25.855Z,80302.59
2023-05-09T12:05:07.637Z,80312.81
2023-05-09T12:06:48.953Z,80290.47
2023-05-09T12:08:30.478Z,80311.53
2023-05-09T12:10:12.163Z,80284.81
2023-05-09T12:11:53.710Z,80290.56
2023-05-09T12:13:35.016Z,80290.66
2023-05-09T12:15:16.577Z,80289.44
2023-05-09T12:16:58.167Z,80303.59
2023-05-09T12:18:39.470Z,80283.09
2023-05-09T12:20:21.444Z,80279.03
2023-05-09T12:22:03.063Z,80290.69
2023-05-09T12:23:44.414Z,80292.06
2023-05-09T12:25:25.701Z,80306.28
2023-05-09T12:27:07.037Z,80282.25
2023-05-09T12:28:48.311Z,80277.88
2023-05-09T12:30:29.584Z,80283.81
2023-05-09T12:32:10.871Z,80288.34
2023-05-09T12:33:52.888Z,80282.91
2023-05-09T12:35:34.492Z,80294.34
2023-05-09T12:37:15.881Z,80291.19
2023-05-09T12:38:57.418Z,80289.19
2023-05-09T12:40:39.006Z,80281.41
2023-05-09T12:42:20.392Z,80285.09
2023-05-09T12:44:01.701Z,80265.28
2023-05-09T12:45:43.290Z,80275.47
2023-05-09T12:47:24.857Z,80279.06
2023-05-09T12:49:06.185Z,80264.56
2023-05-09T12:50:47.494Z,80275.88
2023-05-09T12:52:28.781Z,80272.94
2023-05-09T12:54:10.297Z,80270.94
2023-05-09T12:55:51.798Z,80270.09
2023-05-09T12:57:33.087Z,80250.75
2023-05-09T12:59:14.618Z,80260.66
2023-05-09T13:00:56.096Z,80263.44
2023-05-09T13:02:37.528Z,80251.81
2023-05-09T13:04:19.116Z,80262.88
2023-05-09T13:06:00.603Z,80260.59
2023-05-09T13:07:42.088Z,80260.06
2023-05-09T13:09:23.722Z,80259.59
2023-05-09T13:11:15.453Z,80257.72
2023-05-09T13:12:58.196Z,80254.53
2023-05-09T13:14:39.587Z,80265.56
2023-05-09T13:16:20.947Z,80268.75
2023-05-09T13:18:03.465Z,80262.69
2023-05-09T13:19:48.584Z,80246.56
2023-05-09T13:21:30.060Z,80263.88
2023-05-09T13:23:11.388Z,80264.06
2023-05-09T13:24:52.702Z,80264.09
2023-05-09T13:26:34.099Z,80264.97
2023-05-09T13:28:15.589Z,80262.91
2023-05-09T13:29:57.053Z,80262.28
2023-05-09T13:31:38.579Z,80254.50
2023-05-09T13:33:25.648Z,80251.88
2023-05-09T13:35:07.951Z,80263.66
2023-05-09T13:36:49.419Z,80255.66
2023-05-09T13:38:30.887Z,80252.97
2023-05-09T13:40:12.457Z,80250.91
2023-05-09T13:41:53.845Z,80253.66
2023-05-09T13:43:35.159Z,80251.78
2023-05-09T13:45:16.650Z,80247.88
2023-05-09T13:46:58.083Z,80234.78
2023-05-09T13:48:40.088Z,80241.94
2023-05-09T13:50:21.645Z,80239.97
2023-05-09T13:52:02.947Z,80235.47
2023-05-09T13:53:44.228Z,80239.81
2023-05-09T13:55:25.552Z,80243.13
2023-05-09T13:57:06.907Z,80241.94
2023-05-09T13:58:48.190Z,80235.25
2023-05-09T14:00:30.137Z,80239.34
2023-05-09T14:02:11.688Z,80238.00
2023-05-09T14:03:53.065Z,80235.47
2023-05-09T14:05:34.571Z,80254.94
2023-05-09T14:07:16.205Z,80240.53
2023-05-09T14:08:57.616Z,80240.63
2023-05-09T14:10:38.925Z,80243.22
2023-05-09T14:12:20.236Z,80244.03
2023-05-09T14:14:01.536Z,80239.41
2023-05-09T14:15:43.170Z,80241.75
2023-05-09T14:17:24.695Z,80247.03
2023-05-09T14:19:06.185Z,80236.41
2023-05-09T14:20:47.914Z,80233.81
2023-05-09T14:22:29.294Z,80223.81
2023-05-09T14:24:10.673Z,80229.22
2023-05-09T14:25:52.165Z,80232.47
2023-05-09T14:27:33.477Z,80230.50
2023-05-09T14:29:14.786Z,80233.72
2023-05-09T14:30:56.082Z,80230.91
2023-05-09T14:32:37.401Z,80227.66
2023-05-09T14:34:18.676Z,80229.63
2023-05-09T14:36:00.278Z,80231.56
2023-05-09T14:37:41.850Z,80221.81
2023-05-09T14:39:23.270Z,80234.88
2023-05-09T14:41:04.594Z,80226.88
2023-05-09T14:42:45.909Z,80225.72
2023-05-09T14:44:27.442Z,80222.56
2023-05-09T14:46:09.201Z,80229.13
2023-05-09T14:47:50.648Z,80225.06
2023-05-09T14:49:32.004Z,80223.13
2023-05-09T14:51:13.345Z,80228.13
2023-05-09T14:52:54.659Z,80226.72
2023-05-09T14:54:35.962Z,80217.88
2023-05-09T14:56:17.893Z,80221.59
2023-05-09T14:57:59.450Z,80215.94
2023-05-09T14:59:40.848Z,80213.22
2023-05-09T15:01:22.189Z,80220.56
2023-05-09T15:03:03.602Z,80212.69
2023-05-09T15:04:44.958Z,80208.22
2023-05-09T15:06:26.272Z,80209.50
2023-05-09T15:08:08.293Z,80215.56
2023-05-09T15:09:49.872Z,80213.56
2023-05-09T15:11:43.329Z,80217.31
2023-05-09T15:13:28.842Z,80212.88
2023-05-09T15:15:10.367Z,80209.50
2023-05-09T15:16:51.902Z,80213.50
2023-05-09T15:18:33.267Z,80207.63
2023-05-09T15:20:14.792Z,80210.97
2023-05-09T15:21:56.345Z,80210.44
2023-05-09T15:23:37.681Z,80209.09
2023-05-09T15:25:19.039Z,80207.84
2023-05-09T15:27:00.350Z,80210.34
2023-05-09T15:28:42.328Z,80203.19
2023-05-09T15:30:24.109Z,80202.59
2023-05-09T15:32:05.546Z,80204.41
2023-05-09T15:33:46.845Z,80201.06
2023-05-09T15:35:28.185Z,80201.81
2023-05-09T15:37:09.670Z,80199.81
2023-05-09T15:38:51.167Z,80195.72
2023-05-09T15:40:32.462Z,80198.09
2023-05-09T15:42:14.020Z,80205.31
2023-05-09T15:43:55.672Z,80198.88
2023-05-09T15:45:37.218Z,80202.16
2023-05-09T15:47:18.689Z,80197.47
2023-05-09T15:49:00.233Z,80189.72
2023-05-09T15:50:41.675Z,80196.13
2023-05-09T15:52:22.990Z,80194.31
2023-05-09T15:54:04.279Z,80192.41
2023-05-09T15:55:46.291Z,80195.66
2023-05-09T15:57:27.790Z,80188.75
2023-05-09T15:59:09.357Z,80192.81
2023-05-09T16:00:50.936Z,80186.78
2023-05-09T16:02:32.362Z,80179.84
2023-05-09T16:04:13.917Z,80182.22
2023-05-09T16:05:55.383Z,80180.22
2023-05-09T16:07:36.703Z,80188.06
2023-05-09T16:09:18.238Z,80194.00
2023-05-09T16:10:59.772Z,80193.75
2023-05-09T16:12:41.185Z,80184.78
2023-05-09T16:14:22.606Z,80188.94
2023-05-09T16:16:04.016Z,80187.13
2023-05-09T16:17:45.595Z,80187.38
2023-05-09T16:19:27.426Z,80185.59
2023-05-09T16:21:08.723Z,80185.56
2023-05-09T16:22:50.146Z,80187.69
2023-05-09T16:24:32.041Z,80189.56
2023-05-09T16:26:13.787Z,80189.78
2023-05-09T16:27:55.156Z,80187.22
2023-05-09T16:29:36.448Z,80173.69
2023-05-09T16:31:17.828Z,80176.91
2023-05-09T16:32:59.328Z,80175.75
2023-05-09T16:34:40.870Z,80171.78
2023-05-09T16:36:22.164Z,80172.47
2023-05-09T16:38:03.726Z,80169.19
2023-05-09T16:39:45.383Z,80177.56
2023-05-09T16:41:26.905Z,80179.53
2023-05-09T16:43:08.463Z,80176.88
2023-05-09T16:44:49.991Z,80181.97
2023-05-09T16:46:31.512Z,80175.47
2023-05-09T16:48:13.054Z,80183.09
2023-05-09T16:49:54.355Z,80179.81
2023-05-09T16:51:35.712Z,80181.75
2023-05-09T16:53:17.200Z,80183.88
2023-05-09T16:54:58.920Z,80188.22
2023-05-09T16:56:40.456Z,80182.38
2023-05-09T16:58:21.878Z,80178.41
2023-05-09T17:00:03.394Z,80181.88
2023-05-09T17:01:44.962Z,80177.22
2023-05-09T17:03:26.510Z,80181.13
2023-05-09T17:05:07.805Z,80179.34
2023-05-09T17:06:49.829Z,80186.47
2023-05-09T17:08:31.323Z,80185.25
2023-05-09T17:10:12.782Z,80194.97
2023-05-09T17:11:54.215Z,80185.59
2023-05-09T17:13:35.552Z,80183.50
2023-05-09T17:15:16.999Z,80188.09
2023-05-09T17:16:58.609Z,80183.78
2023-05-09T17:18:40.368Z,80179.22
2023-05-09T17:20:21.894Z,80182.25
2023-05-09T17:22:03.185Z,80181.41
2023-05-09T17:23:44.496Z,80186.34
2023-05-09T17:25:25.766Z,80187.63
2023-05-09T17:27:07.084Z,80182.16
2023-05-09T17:28:48.496Z,80184.72
2023-05-09T17:30:29.913Z,80180.22
2023-05-09T17:32:11.209Z,80184.31
2023-05-09T17:33:52.528Z,80188.59
2023-05-09T17:35:33.914Z,80187.69
2023-05-09T17:37:15.229Z,80190.28
2023-05-09T17:38:56.549Z,80179.13
2023-05-09T17:40:38.594Z,80184.34
2023-05-09T17:42:20.909Z,80171.34
2023-05-09T17:44:02.463Z,80184.09
2023-05-09T17:45:43.884Z,80182.38
2023-05-09T17:47:26.067Z,80189.25
2023-05-09T17:49:07.738Z,80183.09
2023-05-09T17:50:49.097Z,80192.50
2023-05-09T17:52:30.451Z,80191.25
2023-05-09T17:54:11.732Z,80188.91
2023-05-09T17:55:53.058Z,80188.72
2023-05-09T17:57:35.012Z,80193.78
2023-05-09T17:59:16.487Z,80194.75
2023-05-09T18:00:57.764Z,80190.63
2023-05-09T18:02:39.140Z,80191.72
2023-05-09T18:04:20.766Z,80198.50
2023-05-09T18:06:02.444Z,80200.19
2023-05-09T18:07:43.898Z,80198.22
2023-05-09T18:09:25.305Z,80199.72
2023-05-09T18:11:06.787Z,80197.94
2023-05-09T18:12:48.144Z,80193.50
2023-05-09T18:14:29.639Z,80200.03
2023-05-09T18:16:11.225Z,80198.28
2023-05-09T18:17:52.689Z,80193.28
2023-05-09T18:19:34.230Z,80202.34
2023-05-09T18:21:15.821Z,80204.91
2023-05-09T18:22:57.135Z,80208.56
2023-05-09T18:24:38.652Z,80204.97
2023-05-09T18:26:19.941Z,80210.63
2023-05-09T18:28:01.612Z,80206.66
2023-05-09T18:29:43.253Z,80213.78
2023-05-09T18:31:24.727Z,80208.75
2023-05-09T18:33:06.121Z,80206.88
2023-05-09T18:34:47.421Z,80208.72
2023-05-09T18:36:28.725Z,80207.47
2023-05-09T18:38:10.081Z,80206.13
2023-05-09T18:39:51.371Z,80213.66
2023-05-09T18:41:32.656Z,80205.41
2023-05-09T18:43:13.964Z,80202.09
2023-05-09T18:44:55.312Z,80208.00
2023-05-09T18:46:36.693Z,80206.09
2023-05-09T18:48:18.580Z,80207.19
2023-05-09T18:50:02.452Z,80199.41
2023-05-09T18:51:44.355Z,80209.34
2023-05-09T18:53:25.618Z,80205.53
2023-05-09T18:55:07.250Z,80199.50
2023-05-09T18:56:48.762Z,80204.81
2023-05-09T18:58:30.886Z,80211.78
2023-05-09T19:00:12.609Z,80211.06
2023-05-09T19:01:54.174Z,80207.31
2023-05-09T19:03:35.594Z,80209.81
2023-05-09T19:05:17.077Z,80206.09
2023-05-09T19:06:58.449Z,80210.84
2023-05-09T19:08:39.954Z,80211.31
2023-05-09T19:10:21.432Z,80204.75
2023-05-09T19:12:02.930Z,80208.09
2023-05-09T19:13:44.431Z,80210.09
2023-05-09T19:15:28.813Z,80216.09
2023-05-09T19:17:10.379Z,80216.78
2023-05-09T19:18:51.667Z,80217.59
2023-05-09T19:20:33.690Z,80218.16
2023-05-09T19:22:15.411Z,80224.78
2023-05-09T19:23:56.868Z,80215.56
2023-05-09T19:25:38.203Z,80225.38
2023-05-09T19:27:19.727Z,80227.25
2023-05-09T19:29:02.080Z,80223.31
2023-05-09T19:30:44.697Z,80227.72
2023-05-09T19:32:26.085Z,80231.06
2023-05-09T19:34:07.412Z,80232.06
2023-05-09T19:35:48.684Z,80229.63
2023-05-09T19:37:30.008Z,80235.66
2023-05-09T19:39:11.325Z,80236.25
2023-05-09T19:40:52.828Z,80236.47
2023-05-09T19:42:34.572Z,80242.94
2023-05-09T19:44:16.024Z,80242.75
2023-05-09T19:45:57.380Z,80244.63
2023-05-09T19:47:38.788Z,80247.19
2023-05-09T19:49:20.422Z,80249.72
2023-05-09T19:51:01.696Z,80251.09